createdAt,value
2022-09-14T00:01:45.706Z,78.98
2022-09-14T00:04:16.991Z,78.85
2022-09-14T00:06:46.169Z,78.49
2022-09-14T00:09:16.879Z,78.18
2022-09-14T00:11:45.447Z,77.93
2022-09-14T00:14:13.973Z,78.26
2022-09-14T00:16:43.700Z,78.17
2022-09-14T00:19:18.657Z,78.38
2022-09-14T00:21:47.350Z,78.55
2022-09-14T00:24:15.637Z,78.65
2022-09-14T00:26:43.850Z,78.77
2022-09-14T00:29:12.401Z,78.77
2022-09-14T00:31:41.641Z,78.72
2022-09-14T00:34:13.544Z,78.53
2022-09-14T00:36:46.436Z,78.53
2022-09-14T00:39:15.459Z,78.74
2022-09-14T00:41:45.208Z,79.03
2022-09-14T00:44:46.812Z,78.85
2022-09-14T00:47:16.954Z,79.07
2022-09-14T00:49:46.576Z,79.00
2022-09-14T00:52:21.478Z,78.91
2022-09-14T00:54:52.572Z,79.68
2022-09-14T00:57:21.545Z,79.88
2022-09-14T00:59:52.923Z,80.25
2022-09-14T01:02:24.741Z,80.31
2022-09-14T01:04:53.813Z,80.59
2022-09-14T01:07:38.387Z,80.56
2022-09-14T01:10:20.752Z,80.48
2022-09-14T01:13:03.008Z,80.68
2022-09-14T01:15:40.189Z,80.72
2022-09-14T01:18:16.956Z,80.56
2022-09-14T01:20:48.710Z,80.52
2022-09-14T01:23:22.201Z,80.54
2022-09-14T01:26:21.395Z,80.41
2022-09-14T01:28:55.945Z,80.67
2022-09-14T01:31:32.256Z,80.50
2022-09-14T01:34:10.094Z,80.74
2022-09-14T01:36:41.628Z,81.01
2022-09-14T01:39:11.553Z,81.33
2022-09-14T01:41:42.371Z,81.35
2022-09-14T01:44:17.804Z,81.19
2022-09-14T01:46:48.646Z,81.30
2022-09-14T01:49:20.263Z,81.18
2022-09-14T01:51:51.475Z,81.30
2022-09-14T01:54:24.570Z,81.31
2022-09-14T01:56:56.825Z,81.87
2022-09-14T01:59:29.623Z,81.92
2022-09-14T02:02:02.821Z,81.93
2022-09-14T02:04:38.721Z,82.14
2022-09-14T02:07:07.733Z,82.07
2022-09-14T02:09:36.061Z,82.13
2022-09-14T02:12:04.816Z,82.41
2022-09-14T02:14:34.573Z,82.57
2022-09-14T02:17:03.500Z,82.63
2022-09-14T02:19:36.762Z,82.40
2022-09-14T02:22:05.504Z,82.38
2022-09-14T02:24:33.985Z,82.21
2022-09-14T02:27:03.479Z,82.44
2022-09-14T02:29:32.604Z,82.04
2022-09-14T02:32:12.600Z,81.76
2022-09-14T02:34:53.273Z,82.23
2022-09-14T02:37:31.591Z,81.98
2022-09-14T02:40:07.482Z,82.26
2022-09-14T02:42:40.982Z,82.14
2022-09-14T02:45:19.438Z,82.09
2022-09-14T02:47:56.481Z,81.90
2022-09-14T02:50:32.458Z,81.88
2022-09-14T02:53:06.362Z,82.05
2022-09-14T02:55:39.409Z,81.90
2022-09-14T02:58:09.888Z,82.26
2022-09-14T03:00:40.425Z,82.09
2022-09-14T03:03:12.725Z,82.14
2022-09-14T03:05:41.485Z,81.99
2022-09-14T03:08:11.803Z,81.91
2022-09-14T03:10:42.916Z,81.86
2022-09-14T03:13:11.775Z,81.56
2022-09-14T03:15:40.526Z,81.76
2022-09-14T03:18:14.261Z,82.09
2022-09-14T03:20:43.643Z,82.33
2022-09-14T03:23:13.015Z,82.98
2022-09-14T03:25:43.373Z,83.11
2022-09-14T03:28:12.946Z,83.41
2022-09-14T03:30:41.227Z,83.71
2022-09-14T03:33:10.989Z,83.44
2022-09-14T03:35:40.225Z,83.24
2022-09-14T03:38:08.676Z,83.62
2022-09-14T03:40:36.936Z,83.85
2022-09-14T03:43:05.326Z,83.94
2022-09-14T03:45:33.526Z,84.00
2022-09-14T03:48:01.752Z,84.11
2022-09-14T03:50:31.384Z,84.26
2022-09-14T03:52:59.705Z,84.57
2022-09-14T03:55:27.971Z,85.02
2022-09-14T03:57:57.003Z,85.18
2022-09-14T04:00:25.356Z,84.72
2022-09-14T04:02:53.668Z,85.08
2022-09-14T04:05:22.209Z,85.27
2022-09-14T04:07:51.960Z,85.58
2022-09-14T04:10:20.224Z,85.36
2022-09-14T04:12:48.715Z,82.59
2022-09-14T04:15:16.937Z,80.93
2022-09-14T04:17:45.303Z,80.71
2022-09-14T04:20:13.735Z,80.18
2022-09-14T04:22:42.090Z,80.05
2022-09-14T04:25:11.762Z,80.43
2022-09-14T04:27:40.162Z,81.39
2022-09-14T04:30:09.212Z,81.99
2022-09-14T04:32:37.478Z,82.24
2022-09-14T04:35:06.228Z,82.42
2022-09-14T04:37:34.734Z,82.55
2022-09-14T04:40:03.412Z,83.10
2022-09-14T04:42:33.119Z,83.49
2022-09-14T04:45:01.436Z,84.29
2022-09-14T04:47:30.127Z,85.00
2022-09-14T04:49:58.540Z,84.95
2022-09-14T04:52:26.747Z,85.09
2022-09-14T04:54:54.981Z,84.12
2022-09-14T04:57:23.264Z,84.03
2022-09-14T04:59:52.910Z,83.72
2022-09-14T05:02:21.278Z,83.69
2022-09-14T05:04:50.161Z,83.67
2022-09-14T05:07:18.404Z,84.23
2022-09-14T05:09:46.688Z,84.56
2022-09-14T05:12:14.876Z,84.36
2022-09-14T05:14:43.144Z,84.66
2022-09-14T05:17:12.746Z,84.33
2022-09-14T05:19:41.040Z,83.85
2022-09-14T05:22:09.345Z,84.25
2022-09-14T05:24:37.609Z,83.73
2022-09-14T05:27:05.889Z,83.82
2022-09-14T05:29:34.104Z,83.37
2022-09-14T05:32:02.308Z,83.32
2022-09-14T05:34:32.003Z,83.14
2022-09-14T05:37:00.207Z,83.42
2022-09-14T05:39:28.505Z,83.38
2022-09-14T05:41:56.681Z,84.10
2022-09-14T05:44:24.968Z,84.48
2022-09-14T05:46:53.304Z,84.15
2022-09-14T05:49:21.609Z,84.30
2022-09-14T05:51:51.178Z,84.73
2022-09-14T05:54:19.652Z,84.93
2022-09-14T05:56:48.332Z,85.31
2022-09-14T05:59:16.787Z,85.29
2022-09-14T06:01:45.031Z,85.09
2022-09-14T06:04:14.312Z,85.22
2022-09-14T06:06:49.341Z,85.08
2022-09-14T06:09:33.290Z,85.23
2022-09-14T06:12:01.658Z,85.42
2022-09-14T06:14:29.873Z,85.84
2022-09-14T06:17:00.933Z,85.58
2022-09-14T06:19:29.215Z,85.35
2022-09-14T06:21:57.404Z,85.09
2022-09-14T06:24:25.708Z,84.98
2022-09-14T06:26:55.276Z,84.53
2022-09-14T06:29:23.689Z,84.72
2022-09-14T06:31:51.949Z,84.29
2022-09-14T06:34:20.402Z,84.57
2022-09-14T06:36:49.058Z,84.10
2022-09-14T06:39:17.740Z,84.35
2022-09-14T06:41:46.233Z,84.19
2022-09-14T06:44:21.882Z,84.04
2022-09-14T06:46:50.097Z,84.19
2022-09-14T06:49:20.885Z,84.27
2022-09-14T06:51:49.252Z,84.47
2022-09-14T06:54:19.779Z,84.51
2022-09-14T06:56:48.603Z,84.07
2022-09-14T06:59:18.382Z,84.69
2022-09-14T07:01:49.408Z,84.38
2022-09-14T07:04:17.980Z,84.41
2022-09-14T07:06:48.907Z,84.11
2022-09-14T07:09:19.018Z,84.54
2022-09-14T07:11:47.716Z,84.28
2022-09-14T07:14:16.764Z,83.79
2022-09-14T07:16:44.992Z,84.07
2022-09-14T07:19:16.364Z,83.73
2022-09-14T07:21:44.878Z,83.60
2022-09-14T07:24:15.025Z,83.37
2022-09-14T07:26:43.990Z,82.98
2022-09-14T07:29:14.761Z,83.36
2022-09-14T07:31:44.941Z,83.53
2022-09-14T07:34:15.457Z,83.79
2022-09-14T07:36:44.123Z,83.26
2022-09-14T07:39:15.349Z,83.79
2022-09-14T07:41:44.612Z,83.77
2022-09-14T07:44:15.903Z,83.61
2022-09-14T07:46:46.064Z,83.29
2022-09-14T07:49:16.528Z,83.26
2022-09-14T07:51:45.544Z,83.06
2022-09-14T07:54:16.455Z,82.61
2022-09-14T07:56:45.600Z,82.63
2022-09-14T08:02:04.017Z,82.05
2022-09-14T08:04:33.604Z,82.06
2022-09-14T08:07:02.148Z,82.40
2022-09-14T08:09:30.805Z,82.15
2022-09-14T08:11:59.225Z,81.40
2022-09-14T08:14:27.404Z,81.86
2022-09-14T08:16:55.729Z,81.67
2022-09-14T08:19:24.906Z,80.66
2022-09-14T08:21:55.560Z,80.22
2022-09-14T08:24:23.835Z,80.59
2022-09-14T08:26:52.547Z,80.09
2022-09-14T08:29:21.260Z,80.47
2022-09-14T08:31:51.745Z,79.91
2022-09-14T08:34:21.102Z,80.15
2022-09-14T08:36:49.307Z,79.48
2022-09-14T08:39:19.385Z,79.96
2022-09-14T08:41:52.820Z,80.01
2022-09-14T08:44:27.191Z,79.51
2022-09-14T08:47:00.509Z,80.05
2022-09-14T08:49:43.973Z,79.58
2022-09-14T08:52:22.242Z,79.66
2022-09-14T08:54:55.813Z,79.31
2022-09-14T08:57:30.934Z,79.56
2022-09-14T09:00:06.686Z,79.26
2022-09-14T09:02:49.669Z,79.65
2022-09-14T09:05:31.119Z,79.90
2022-09-14T09:08:04.239Z,80.08
2022-09-14T09:10:35.012Z,79.64
2022-09-14T09:13:06.993Z,79.33
2022-09-14T09:15:41.317Z,79.45
2022-09-14T09:18:13.868Z,79.63
2022-09-14T09:20:46.184Z,79.44
2022-09-14T09:23:16.858Z,79.52
2022-09-14T09:25:55.342Z,78.97
2022-09-14T09:28:24.974Z,78.36
2022-09-14T09:30:54.099Z,78.58
2022-09-14T09:33:29.588Z,79.00
2022-09-14T09:36:18.785Z,78.74
2022-09-14T09:38:47.080Z,78.32
2022-09-14T09:41:20.886Z,78.29
2022-09-14T09:44:00.553Z,78.41
2022-09-14T09:46:30.305Z,78.36
2022-09-14T09:48:59.588Z,78.80
2022-09-14T09:51:30.739Z,78.96
2022-09-14T09:54:03.527Z,79.04
2022-09-14T09:56:36.997Z,78.92
2022-09-14T09:59:22.037Z,78.92
2022-09-14T10:01:50.348Z,78.97
2022-09-14T10:04:21.393Z,79.01
2022-09-14T10:06:51.619Z,79.33
2022-09-14T10:09:23.672Z,79.24
2022-09-14T10:12:00.791Z,78.84
2022-09-14T10:14:32.579Z,79.00
2022-09-14T10:17:09.443Z,78.82
2022-09-14T10:19:38.226Z,77.94
2022-09-14T10:22:25.729Z,77.00
2022-09-14T10:24:57.722Z,77.25
2022-09-14T10:27:41.036Z,76.25
2022-09-14T10:30:21.011Z,74.95
2022-09-14T10:32:56.493Z,75.38
2022-09-14T10:35:34.080Z,75.66
2022-09-14T10:38:16.100Z,75.79
2022-09-14T10:40:50.293Z,76.04
2022-09-14T10:43:27.304Z,76.40
2022-09-14T10:46:02.184Z,75.42
2022-09-14T10:48:54.444Z,74.69
2022-09-14T10:51:46.594Z,74.54
2022-09-14T10:54:34.484Z,75.05
2022-09-14T10:57:15.172Z,74.38
2022-09-14T10:59:52.984Z,73.80
2022-09-14T11:03:05.869Z,73.07
2022-09-14T11:05:39.324Z,71.75
2022-09-14T11:08:22.950Z,71.14
2022-09-14T11:11:10.679Z,70.70
2022-09-14T11:13:52.235Z,69.69
2022-09-14T11:16:31.695Z,69.32
2022-09-14T11:19:08.026Z,69.87
2022-09-14T11:21:45.201Z,70.00
2022-09-14T11:24:21.441Z,69.83
2022-09-14T11:27:00.618Z,69.18
2022-09-14T11:29:33.631Z,69.18
2022-09-14T11:32:20.831Z,67.78
2022-09-14T11:34:56.236Z,67.90
2022-09-14T11:37:33.988Z,67.50
2022-09-14T11:40:10.313Z,66.41
2022-09-14T11:42:45.236Z,67.22
2022-09-14T11:45:22.200Z,66.70
2022-09-14T11:47:59.738Z,67.98
2022-09-14T11:50:32.873Z,67.86
2022-09-14T11:53:11.143Z,66.53
2022-09-14T11:55:43.947Z,66.35
2022-09-14T11:58:19.921Z,66.97
2022-09-14T12:01:05.089Z,67.18
2022-09-14T12:04:10.086Z,67.02
2022-09-14T12:07:05.479Z,66.65
2022-09-14T12:09:53.732Z,64.96
2022-09-14T12:12:40.069Z,66.32
2022-09-14T12:15:22.885Z,66.47
2022-09-14T12:17:52.662Z,67.46
2022-09-14T12:20:44.175Z,67.06
2022-09-14T12:23:27.080Z,67.26
2022-09-14T12:26:01.034Z,66.37
2022-09-14T12:28:47.901Z,66.26
2022-09-14T12:31:37.109Z,66.08
2022-09-14T12:34:27.181Z,64.58
2022-09-14T12:37:28.372Z,63.03
2022-09-14T12:40:36.341Z,63.68
2022-09-14T12:43:48.474Z,64.18
2022-09-14T12:46:42.238Z,63.26
2022-09-14T12:49:37.256Z,62.76
2022-09-14T12:52:35.899Z,62.67
2022-09-14T12:55:20.928Z,62.98
2022-09-14T12:57:54.612Z,63.99
2022-09-14T13:00:23.121Z,63.66
2022-09-14T13:03:27.012Z,64.45
2022-09-14T13:05:55.567Z,65.29
2022-09-14T13:08:25.620Z,64.96
2022-09-14T13:10:54.181Z,64.46
2022-09-14T13:13:26.954Z,63.95
2022-09-14T13:15:59.269Z,64.26
2022-09-14T13:18:34.771Z,65.14
2022-09-14T13:21:05.458Z,65.91
2022-09-14T13:23:39.088Z,65.54
2022-09-14T13:26:13.054Z,65.13
2022-09-14T13:28:44.399Z,65.48
2022-09-14T13:31:15.798Z,64.04
2022-09-14T13:33:51.182Z,63.85
2022-09-14T13:36:21.896Z,64.75
2022-09-14T13:38:50.661Z,65.55
2022-09-14T13:41:23.018Z,65.94
2022-09-14T13:43:55.522Z,64.16
2022-09-14T13:46:25.438Z,63.94
2022-09-14T13:48:56.028Z,63.59
2022-09-14T13:51:27.289Z,64.20
2022-09-14T13:53:57.850Z,63.56
2022-09-14T13:56:31.579Z,63.28
2022-09-14T13:59:21.698Z,63.35
2022-09-14T14:01:57.145Z,63.02
2022-09-14T14:04:35.219Z,63.97
2022-09-14T14:07:08.532Z,64.09
2022-09-14T14:09:46.222Z,64.11
2022-09-14T14:12:24.847Z,64.47
2022-09-14T14:14:57.961Z,64.73
2022-09-14T14:17:34.618Z,64.79
2022-09-14T14:20:31.864Z,64.45
2022-09-14T14:23:02.996Z,64.40
2022-09-14T14:25:33.613Z,64.73
2022-09-14T14:28:03.689Z,65.34
2022-09-14T14:30:34.994Z,65.52
2022-09-14T14:33:03.377Z,64.94
2022-09-14T14:35:33.009Z,65.66
2022-09-14T14:38:01.346Z,65.49
2022-09-14T14:40:30.105Z,65.40
2022-09-14T14:42:59.637Z,65.60
2022-09-14T14:45:28.882Z,66.33
2022-09-14T14:48:00.075Z,65.79
2022-09-14T14:50:30.312Z,66.34
2022-09-14T14:53:00.928Z,67.12
2022-09-14T14:55:31.939Z,66.83
2022-09-14T14:58:03.207Z,67.54
2022-09-14T15:00:33.838Z,68.19
2022-09-14T15:03:02.482Z,68.05
2022-09-14T15:05:31.208Z,68.38
2022-09-14T15:08:01.034Z,68.21
2022-09-14T15:10:30.702Z,68.49
2022-09-14T15:12:58.990Z,68.76
2022-09-14T15:15:27.768Z,68.95
2022-09-14T15:17:56.191Z,69.60
2022-09-14T15:20:24.496Z,69.65
2022-09-14T15:22:53.251Z,70.70
2022-09-14T15:25:23.515Z,71.37
2022-09-14T15:27:51.700Z,72.05
2022-09-14T15:30:20.029Z,72.29
2022-09-14T15:32:48.690Z,72.58
2022-09-14T15:35:17.209Z,72.94
2022-09-14T15:37:45.525Z,72.79
2022-09-14T15:40:14.134Z,73.04
2022-09-14T15:42:43.815Z,73.10
2022-09-14T15:45:13.775Z,72.94
2022-09-14T15:47:43.888Z,72.90
2022-09-14T15:50:12.794Z,73.42
2022-09-14T15:52:41.581Z,73.26
2022-09-14T15:55:12.237Z,73.17
2022-09-14T15:57:40.795Z,73.48
2022-09-14T16:00:13.808Z,73.33
2022-09-14T16:02:42.377Z,73.56
2022-09-14T16:05:11.094Z,73.77
2022-09-14T16:07:39.465Z,73.83
2022-09-14T16:10:08.909Z,74.31
2022-09-14T16:12:37.150Z,74.39
2022-09-14T16:15:05.879Z,73.97
2022-09-14T16:17:35.468Z,74.15
2022-09-14T16:20:04.868Z,74.06
2022-09-14T16:22:33.776Z,74.30
2022-09-14T16:25:02.038Z,74.76
2022-09-14T16:27:30.445Z,74.86
2022-09-14T16:29:58.718Z,74.49
2022-09-14T16:32:27.614Z,74.87
2022-09-14T16:34:57.289Z,75.54
2022-09-14T16:37:26.776Z,75.70
2022-09-14T16:39:55.306Z,76.16
2022-09-14T16:42:23.700Z,75.96
2022-09-14T16:44:51.982Z,76.21
2022-09-14T16:47:20.253Z,76.10
2022-09-14T16:49:48.477Z,76.09
2022-09-14T16:52:18.074Z,76.14
2022-09-14T16:54:46.232Z,76.42
2022-09-14T16:57:14.442Z,76.34
2022-09-14T16:59:42.824Z,76.65
2022-09-14T17:02:11.792Z,76.37
2022-09-14T17:04:40.948Z,76.16
2022-09-14T17:07:10.039Z,76.75
2022-09-14T17:09:41.271Z,76.55
2022-09-14T17:12:09.503Z,76.45
2022-09-14T17:14:37.719Z,76.12
2022-09-14T17:17:06.082Z,76.50
2022-09-14T17:19:35.466Z,76.54
2022-09-14T17:22:04.648Z,76.52
2022-09-14T17:24:32.994Z,76.42
2022-09-14T17:27:02.975Z,76.56
2022-09-14T17:29:36.943Z,76.81
2022-09-14T17:32:05.385Z,76.66
2022-09-14T17:34:33.664Z,76.84
2022-09-14T17:37:01.963Z,76.64
2022-09-14T17:39:30.200Z,76.85
2022-09-14T17:42:00.493Z,76.68
2022-09-14T17:44:31.904Z,76.65
2022-09-14T17:47:00.911Z,77.07
2022-09-14T17:49:34.911Z,76.68
2022-09-14T17:52:03.792Z,77.10
2022-09-14T17:54:32.085Z,77.00
2022-09-14T17:57:00.334Z,77.26
2022-09-14T17:59:29.979Z,77.23
2022-09-14T18:01:58.784Z,76.90
2022-09-14T18:04:27.106Z,77.13
2022-09-14T18:06:55.340Z,77.04
2022-09-14T18:09:25.284Z,76.92
2022-09-14T18:11:57.217Z,76.73
2022-09-14T18:14:26.173Z,77.10
2022-09-14T18:16:55.772Z,77.18
2022-09-14T18:19:23.980Z,77.53
2022-09-14T18:21:52.957Z,77.55
2022-09-14T18:24:21.742Z,77.61
2022-09-14T18:26:52.708Z,77.83
2022-09-14T18:29:23.259Z,77.52
2022-09-14T18:32:07.164Z,77.52
2022-09-14T18:34:35.391Z,77.85
2022-09-14T18:37:03.655Z,77.72
2022-09-14T18:39:31.946Z,77.75
2022-09-14T18:42:00.177Z,77.44
2022-09-14T18:44:28.732Z,77.79
2022-09-14T18:46:57.115Z,77.98
2022-09-14T18:49:27.103Z,78.06
2022-09-14T18:51:55.293Z,78.35
2022-09-14T18:54:27.629Z,78.32
2022-09-14T18:56:56.380Z,78.12
2022-09-14T18:59:24.677Z,78.12
2022-09-14T19:01:53.007Z,77.58
2022-09-14T19:04:21.196Z,77.59
2022-09-14T19:06:51.139Z,77.48
2022-09-14T19:09:19.443Z,77.27
2022-09-14T19:11:47.696Z,77.55
2022-09-14T19:14:17.542Z,77.91
2022-09-14T19:16:45.915Z,78.01
2022-09-14T19:19:17.273Z,77.96
2022-09-14T19:21:46.096Z,77.59
2022-09-14T19:24:18.369Z,77.69
2022-09-14T19:26:48.397Z,77.87
2022-09-14T19:29:24.720Z,77.76
2022-09-14T19:31:54.185Z,77.56
2022-09-14T19:34:25.606Z,77.96
2022-09-14T19:36:54.916Z,77.80
2022-09-14T19:39:25.948Z,77.74
2022-09-14T19:41:54.795Z,77.97
2022-09-14T19:44:23.597Z,77.98
2022-09-14T19:46:52.540Z,78.09
2022-09-14T19:49:22.624Z,78.23
2022-09-14T19:51:51.233Z,78.06
2022-09-14T19:54:19.752Z,78.29
2022-09-14T19:56:49.516Z,78.68
2022-09-14T19:59:17.868Z,78.91
2022-09-14T20:01:46.713Z,79.66
2022-09-14T20:04:15.795Z,80.98
2022-09-14T20:06:46.240Z,81.61
2022-09-14T20:09:16.582Z,82.47
2022-09-14T20:11:46.582Z,82.78
2022-09-14T20:14:18.102Z,83.10
2022-09-14T20:16:48.656Z,83.05
2022-09-14T20:19:18.392Z,83.40
2022-09-14T20:21:48.214Z,83.47
2022-09-14T20:24:19.594Z,83.27
2022-09-14T20:26:52.174Z,82.57
2022-09-14T20:29:23.996Z,81.55
2022-09-14T20:31:58.198Z,81.15
2022-09-14T20:34:27.240Z,81.13
2022-09-14T20:36:56.096Z,80.49
2022-09-14T20:39:25.665Z,80.19
2022-09-14T20:41:54.479Z,79.59
2022-09-14T20:44:24.264Z,79.09
2022-09-14T20:46:52.750Z,78.68
2022-09-14T20:49:22.918Z,78.80
2022-09-14T20:51:52.757Z,78.30
2022-09-14T20:54:21.488Z,77.91
2022-09-14T20:56:49.716Z,77.81
2022-09-14T20:59:19.840Z,77.76
2022-09-14T21:01:50.933Z,77.68
2022-09-14T21:04:21.161Z,77.37
2022-09-14T21:06:52.559Z,77.09
2022-09-14T21:09:22.009Z,77.30
2022-09-14T21:11:50.317Z,77.32
2022-09-14T21:14:20.835Z,77.24
2022-09-14T21:16:55.155Z,77.37
2022-09-14T21:19:25.141Z,77.19
2022-09-14T21:21:53.730Z,77.41
2022-09-14T21:24:23.446Z,77.13
2022-09-14T21:26:52.125Z,77.22
2022-09-14T21:29:23.921Z,77.58
2022-09-14T21:31:54.385Z,77.50
2022-09-14T21:34:22.968Z,77.43
2022-09-14T21:36:52.594Z,77.43
2022-09-14T21:39:23.304Z,76.88
2022-09-14T21:41:58.097Z,76.43
2022-09-14T21:44:30.839Z,76.47
2022-09-14T21:47:00.740Z,76.15
2022-09-14T21:49:29.374Z,76.20
2022-09-14T21:51:57.663Z,76.24
2022-09-14T21:54:26.219Z,76.02
2022-09-14T21:56:54.882Z,75.83
2022-09-14T21:59:24.196Z,75.54
2022-09-14T22:01:52.925Z,75.57
2022-09-14T22:04:25.205Z,75.44
2022-09-14T22:06:54.081Z,75.19
2022-09-14T22:09:24.789Z,74.80
2022-09-14T22:11:53.814Z,74.68
2022-09-14T22:14:24.430Z,74.28
2022-09-14T22:16:52.958Z,74.43
2022-09-14T22:19:24.458Z,74.56
2022-09-14T22:21:53.322Z,74.52
2022-09-14T22:24:23.711Z,74.32
2022-09-14T22:26:51.963Z,73.90
2022-09-14T22:29:22.309Z,74.33
2022-09-14T22:31:50.781Z,74.39
2022-09-14T22:34:19.256Z,74.38
2022-09-14T22:36:49.139Z,74.30
2022-09-14T22:39:17.468Z,74.46
2022-09-14T22:41:45.785Z,74.55
2022-09-14T22:44:14.331Z,74.75
2022-09-14T22:46:43.310Z,74.75
2022-09-14T22:49:11.992Z,74.60
2022-09-14T22:51:40.961Z,74.45
2022-09-14T22:54:10.631Z,74.61
2022-09-14T22:56:40.305Z,74.43
2022-09-14T22:59:10.583Z,73.68
2022-09-14T23:01:41.911Z,73.65
2022-09-14T23:04:12.943Z,73.21
2022-09-14T23:06:43.616Z,72.41
2022-09-14T23:09:16.885Z,72.15
2022-09-14T23:11:45.776Z,72.57
2022-09-14T23:14:14.634Z,72.22
2022-09-14T23:16:45.021Z,72.33
2022-09-14T23:19:16.627Z,72.38
2022-09-14T23:21:45.273Z,71.88
2022-09-14T23:24:15.030Z,72.57
2022-09-14T23:26:43.290Z,72.55
2022-09-14T23:29:15.883Z,72.26
2022-09-14T23:31:44.526Z,72.54
2022-09-14T23:34:12.751Z,72.86
2022-09-14T23:36:41.167Z,72.98
2022-09-14T23:39:09.424Z,72.86
2022-09-14T23:41:40.089Z,73.54
2022-09-14T23:44:08.395Z,73.69
2022-09-14T23:46:36.752Z,73.92
2022-09-14T23:49:05.131Z,74.13
2022-09-14T23:51:33.500Z,74.27
2022-09-14T23:54:01.740Z,74.46
2022-09-14T23:56:30.188Z,74.52
2022-09-14T23:59:00.292Z,74.67
